sensor_id;sensor_type;location;lat;lon;timestamp;temperature;humidity
43185;DHT22;28803;52.308;19.096;2023-04-25T00:00:19;10.50;99.90
43185;DHT22;28803;52.308;19.096;2023-04-25T00:03:07;10.50;99.90
43185;DHT22;28803;52.308;19.096;2023-04-25T00:05:36;10.50;99.90
43185;DHT22;28803;52.308;19.096;2023-04-25T00:08:04;10.50;99.90
43185;DHT22;28803;52.308;19.096;2023-04-25T00:10:31;10.60;99.90
43185;DHT22;28803;52.308;19.096;2023-04-25T00:12:58;10.60;99.90
43185;DHT22;28803;52.308;19.096;2023-04-25T00:15:29;10.60;99.90
43185;DHT22;28803;52.308;19.096;2023-04-25T00:17:59;10.60;99.90
43185;DHT22;28803;52.308;19.096;2023-04-25T00:20:26;10.60;99.90
43185;DHT22;28803;52.308;19.096;2023-04-25T00:22:53;10.60;99.90
43185;DHT22;28803;52.308;19.096;2023-04-25T00:25:22;10.60;99.90
43185;DHT22;28803;52.308;19.096;2023-04-25T00:27:50;10.60;99.90
43185;DHT22;28803;52.308;19.096;2023-04-25T00:30:17;10.60;99.90
43185;DHT22;28803;52.308;19.096;2023-04-25T00:32:44;10.50;99.90
43185;DHT22;28803;52.308;19.096;2023-04-25T00:35:13;10.50;99.90
43185;DHT22;28803;52.308;19.096;2023-04-25T00:37:40;10.50;99.90
43185;DHT22;28803;52.308;19.096;2023-04-25T00:40:07;10.50;99.90
43185;DHT22;28803;52.308;19.096;2023-04-25T00:42:35;10.50;99.90
43185;DHT22;28803;52.308;19.096;2023-04-25T00:45:05;10.50;99.90
43185;DHT22;28803;52.308;19.096;2023-04-25T00:47:36;10.50;99.90
43185;DHT22;28803;52.308;19.096;2023-04-25T00:50:03;10.50;99.90
43185;DHT22;28803;52.308;19.096;2023-04-25T00:52:30;10.50;99.90
43185;DHT22;28803;52.308;19.096;2023-04-25T00:54:58;10.40;99.90
43185;DHT22;28803;52.308;19.096;2023-04-25T00:57:26;10.50;99.90
43185;DHT22;28803;52.308;19.096;2023-04-25T00:59:54;10.40;99.90
43185;DHT22;28803;52.308;19.096;2023-04-25T01:02:21;10.50;99.90
43185;DHT22;28803;52.308;19.096;2023-04-25T01:04:49;10.50;99.90
43185;DHT22;28803;52.308;19.096;2023-04-25T01:07:16;10.50;99.90
43185;DHT22;28803;52.308;19.096;2023-04-25T01:09:44;10.50;99.90
43185;DHT22;28803;52.308;19.096;2023-04-25T01:12:11;10.40;99.90
43185;DHT22;28803;52.308;19.096;2023-04-25T01:14:38;10.40;99.90
43185;DHT22;28803;52.308;19.096;2023-04-25T01:17:06;10.40;99.90
43185;DHT22;28803;52.308;19.096;2023-04-25T01:19:35;10.40;99.90
43185;DHT22;28803;52.308;19.096;2023-04-25T01:22:02;10.40;99.90
43185;DHT22;28803;52.308;19.096;2023-04-25T01:24:33;10.40;99.90
43185;DHT22;28803;52.308;19.096;2023-04-25T01:27:01;10.40;99.90
43185;DHT22;28803;52.308;19.096;2023-04-25T01:29:29;10.40;99.90
43185;DHT22;28803;52.308;19.096;2023-04-25T01:31:57;10.40;99.90
43185;DHT22;28803;52.308;19.096;2023-04-25T01:34:25;10.40;99.90
43185;DHT22;28803;52.308;19.096;2023-04-25T01:36:53;10.30;99.90
43185;DHT22;28803;52.308;19.096;2023-04-25T01:41:49;10.30;99.90
43185;DHT22;28803;52.308;19.096;2023-04-25T01:44:16;10.30;99.90
43185;DHT22;28803;52.308;19.096;2023-04-25T01:46:43;10.20;97.40
43185;DHT22;28803;52.308;19.096;2023-04-25T01:49:11;10.10;94.20
43185;DHT22;28803;52.308;19.096;2023-04-25T01:51:38;10.10;94.10
43185;DHT22;28803;52.308;19.096;2023-04-25T01:54:05;10.00;94.70
43185;DHT22;28803;52.308;19.096;2023-04-25T01:56:33;10.00;95.50
43185;DHT22;28803;52.308;19.096;2023-04-25T01:59:04;9.90;96.30
43185;DHT22;28803;52.308;19.096;2023-04-25T02:01:32;10.00;96.20
43185;DHT22;28803;52.308;19.096;2023-04-25T02:03:59;9.90;92.80
43185;DHT22;28803;52.308;19.096;2023-04-25T02:06:27;9.80;90.00
43185;DHT22;28803;52.308;19.096;2023-04-25T02:08:54;9.80;86.10
43185;DHT22;28803;52.308;19.096;2023-04-25T02:11:21;9.70;82.00
43185;DHT22;28803;52.308;19.096;2023-04-25T02:13:49;9.70;75.90
43185;DHT22;28803;52.308;19.096;2023-04-25T02:16:16;9.60;74.60
43185;DHT22;28803;52.308;19.096;2023-04-25T02:18:44;9.50;75.90
43185;DHT22;28803;52.308;19.096;2023-04-25T02:21:11;9.40;77.20
43185;DHT22;28803;52.308;19.096;2023-04-25T02:23:38;9.40;79.90
43185;DHT22;28803;52.308;19.096;2023-04-25T02:26:06;9.40;83.80
43185;DHT22;28803;52.308;19.096;2023-04-25T02:28:33;9.30;82.90
43185;DHT22;28803;52.308;19.096;2023-04-25T02:31:00;9.20;79.70
43185;DHT22;28803;52.308;19.096;2023-04-25T02:33:27;9.20;80.20
43185;DHT22;28803;52.308;19.096;2023-04-25T02:35:54;9.20;83.40
43185;DHT22;28803;52.308;19.096;2023-04-25T02:38:22;9.10;84.20
43185;DHT22;28803;52.308;19.096;2023-04-25T02:40:49;9.10;88.40
43185;DHT22;28803;52.308;19.096;2023-04-25T02:43:16;9.10;91.10
43185;DHT22;28803;52.308;19.096;2023-04-25T02:45:43;9.10;93.10
43185;DHT22;28803;52.308;19.096;2023-04-25T02:48:11;9.00;92.20
43185;DHT22;28803;52.308;19.096;2023-04-25T02:50:38;9.00;92.30
43185;DHT22;28803;52.308;19.096;2023-04-25T02:53:05;9.00;92.20
43185;DHT22;28803;52.308;19.096;2023-04-25T02:55:32;9.00;90.90
43185;DHT22;28803;52.308;19.096;2023-04-25T02:58:00;8.90;84.70
43185;DHT22;28803;52.308;19.096;2023-04-25T03:00:27;8.80;80.40
43185;DHT22;28803;52.308;19.096;2023-04-25T03:02:54;8.80;74.20
43185;DHT22;28803;52.308;19.096;2023-04-25T03:05:22;8.70;66.50
43185;DHT22;28803;52.308;19.096;2023-04-25T03:07:49;8.60;63.40
43185;DHT22;28803;52.308;19.096;2023-04-25T03:10:16;8.50;54.60
43185;DHT22;28803;52.308;19.096;2023-04-25T03:12:44;8.40;32.30
43185;DHT22;28803;52.308;19.096;2023-04-25T03:15:11;8.30;25.20
43185;DHT22;28803;52.308;19.096;2023-04-25T03:17:38;8.30;22.70
43185;DHT22;28803;52.308;19.096;2023-04-25T03:20:06;8.30;20.40
43185;DHT22;28803;52.308;19.096;2023-04-25T03:22:35;8.30;17.40
43185;DHT22;28803;52.308;19.096;2023-04-25T03:25:02;8.30;8.40
43185;DHT22;28803;52.308;19.096;2023-04-25T03:27:30;8.30;6.10
43185;DHT22;28803;52.308;19.096;2023-04-25T03:29:57;8.30;3.10
43185;DHT22;28803;52.308;19.096;2023-04-25T03:32:24;8.30;1.60
43185;DHT22;28803;52.308;19.096;2023-04-25T03:34:51;8.30;1.00
43185;DHT22;28803;52.308;19.096;2023-04-25T03:37:19;8.30;1.00
43185;DHT22;28803;52.308;19.096;2023-04-25T03:39:46;8.30;1.00
43185;DHT22;28803;52.308;19.096;2023-04-25T03:42:13;8.20;1.00
43185;DHT22;28803;52.308;19.096;2023-04-25T03:44:40;8.20;1.00
43185;DHT22;28803;52.308;19.096;2023-04-25T03:47:08;8.20;1.00
43185;DHT22;28803;52.308;19.096;2023-04-25T03:49:35;8.20;1.00
43185;DHT22;28803;52.308;19.096;2023-04-25T03:52:03;8.10;1.00
43185;DHT22;28803;52.308;19.096;2023-04-25T03:54:30;8.10;1.00
43185;DHT22;28803;52.308;19.096;2023-04-25T03:56:58;8.20;1.00
43185;DHT22;28803;52.308;19.096;2023-04-25T03:59:25;8.20;1.00
43185;DHT22;28803;52.308;19.096;2023-04-25T04:01:53;8.30;1.00
43185;DHT22;28803;52.308;19.096;2023-04-25T04:04:20;8.20;1.00
43185;DHT22;28803;52.308;19.096;2023-04-25T04:06:48;8.30;1.00
43185;DHT22;28803;52.308;19.096;2023-04-25T04:09:15;8.30;1.00
43185;DHT22;28803;52.308;19.096;2023-04-25T04:11:43;8.40;1.00
43185;DHT22;28803;52.308;19.096;2023-04-25T04:14:10;8.50;1.00
43185;DHT22;28803;52.308;19.096;2023-04-25T04:16:38;8.40;99.90
43185;DHT22;28803;52.308;19.096;2023-04-25T04:19:05;8.40;99.90
43185;DHT22;28803;52.308;19.096;2023-04-25T04:21:32;8.30;99.90
43185;DHT22;28803;52.308;19.096;2023-04-25T04:24:00;8.40;99.90
43185;DHT22;28803;52.308;19.096;2023-04-25T04:26:27;8.40;99.90
43185;DHT22;28803;52.308;19.096;2023-04-25T04:28:54;8.40;99.90
43185;DHT22;28803;52.308;19.096;2023-04-25T04:31:22;8.40;99.90
43185;DHT22;28803;52.308;19.096;2023-04-25T04:33:49;8.40;99.90
43185;DHT22;28803;52.308;19.096;2023-04-25T04:36:18;8.40;99.90
43185;DHT22;28803;52.308;19.096;2023-04-25T04:38:49;8.40;99.90
43185;DHT22;28803;52.308;19.096;2023-04-25T04:41:17;8.50;99.90
43185;DHT22;28803;52.308;19.096;2023-04-25T04:43:44;8.50;99.90
43185;DHT22;28803;52.308;19.096;2023-04-25T04:46:12;8.50;99.90
43185;DHT22;28803;52.308;19.096;2023-04-25T04:51:07;8.60;99.90
43185;DHT22;28803;52.308;19.096;2023-04-25T04:53:34;8.60;99.90
43185;DHT22;28803;52.308;19.096;2023-04-25T04:56:02;8.60;99.90
43185;DHT22;28803;52.308;19.096;2023-04-25T04:58:29;8.70;19.80
43185;DHT22;28803;52.308;19.096;2023-04-25T05:00:57;8.70;1.00
43185;DHT22;28803;52.308;19.096;2023-04-25T05:03:24;8.80;1.00
43185;DHT22;28803;52.308;19.096;2023-04-25T05:05:51;8.90;46.00
43185;DHT22;28803;52.308;19.096;2023-04-25T05:08:18;8.90;1.00
43185;DHT22;28803;52.308;19.096;2023-04-25T05:10:46;8.80;99.90
43185;DHT22;28803;52.308;19.096;2023-04-25T05:13:13;8.90;99.90
43185;DHT22;28803;52.308;19.096;2023-04-25T05:15:40;8.80;1.00
43185;DHT22;28803;52.308;19.096;2023-04-25T05:18:07;8.80;1.00
43185;DHT22;28803;52.308;19.096;2023-04-25T05:20:35;8.80;99.90
43185;DHT22;28803;52.308;19.096;2023-04-25T05:23:02;8.70;99.90
43185;DHT22;28803;52.308;19.096;2023-04-25T05:25:29;8.70;99.90
43185;DHT22;28803;52.308;19.096;2023-04-25T05:27:56;8.70;1.00
43185;DHT22;28803;52.308;19.096;2023-04-25T05:30:24;8.70;99.90
43185;DHT22;28803;52.308;19.096;2023-04-25T05:32:51;8.70;99.90
43185;DHT22;28803;52.308;19.096;2023-04-25T05:35:18;8.90;99.90
43185;DHT22;28803;52.308;19.096;2023-04-25T05:37:45;9.00;99.90
43185;DHT22;28803;52.308;19.096;2023-04-25T05:40:13;9.10;99.90
43185;DHT22;28803;52.308;19.096;2023-04-25T05:42:40;9.20;1.00
43185;DHT22;28803;52.308;19.096;2023-04-25T05:45:07;9.30;99.90
43185;DHT22;28803;52.308;19.096;2023-04-25T05:47:34;9.40;99.90
43185;DHT22;28803;52.308;19.096;2023-04-25T05:50:02;9.40;99.90
43185;DHT22;28803;52.308;19.096;2023-04-25T05:52:29;9.50;3.90
43185;DHT22;28803;52.308;19.096;2023-04-25T05:54:56;9.60;99.90
43185;DHT22;28803;52.308;19.096;2023-04-25T05:57:25;9.60;99.90
43185;DHT22;28803;52.308;19.096;2023-04-25T05:59:53;9.60;99.90
43185;DHT22;28803;52.308;19.096;2023-04-25T06:02:21;9.70;99.90
43185;DHT22;28803;52.308;19.096;2023-04-25T06:04:50;9.70;99.90
43185;DHT22;28803;52.308;19.096;2023-04-25T06:07:18;9.70;99.90
43185;DHT22;28803;52.308;19.096;2023-04-25T06:09:47;9.80;99.90
43185;DHT22;28803;52.308;19.096;2023-04-25T06:12:14;9.80;99.90
43185;DHT22;28803;52.308;19.096;2023-04-25T06:14:41;9.90;99.90
43185;DHT22;28803;52.308;19.096;2023-04-25T06:17:08;10.10;99.90
43185;DHT22;28803;52.308;19.096;2023-04-25T06:19:36;10.00;99.90
43185;DHT22;28803;52.308;19.096;2023-04-25T06:24:31;10.20;99.90
43185;DHT22;28803;52.308;19.096;2023-04-25T06:26:58;10.70;99.90
43185;DHT22;28803;52.308;19.096;2023-04-25T06:29:25;10.70;99.90
43185;DHT22;28803;52.308;19.096;2023-04-25T06:31:52;11.10;99.90
43185;DHT22;28803;52.308;19.096;2023-04-25T06:34:21;11.20;99.90
43185;DHT22;28803;52.308;19.096;2023-04-25T06:36:48;11.10;99.90
43185;DHT22;28803;52.308;19.096;2023-04-25T06:39:15;11.00;99.90
43185;DHT22;28803;52.308;19.096;2023-04-25T06:41:43;11.00;99.90
43185;DHT22;28803;52.308;19.096;2023-04-25T06:44:10;10.90;99.90
43185;DHT22;28803;52.308;19.096;2023-04-25T06:46:37;10.90;99.90
43185;DHT22;28803;52.308;19.096;2023-04-25T06:49:05;11.00;99.90
43185;DHT22;28803;52.308;19.096;2023-04-25T06:51:32;11.00;99.90
43185;DHT22;28803;52.308;19.096;2023-04-25T06:53:59;11.00;99.90
43185;DHT22;28803;52.308;19.096;2023-04-25T06:56:28;11.20;99.90
43185;DHT22;28803;52.308;19.096;2023-04-25T06:58:56;11.70;99.90
43185;DHT22;28803;52.308;19.096;2023-04-25T07:01:23;12.30;99.90
43185;DHT22;28803;52.308;19.096;2023-04-25T07:03:51;13.00;99.90
43185;DHT22;28803;52.308;19.096;2023-04-25T07:06:18;13.10;99.90
43185;DHT22;28803;52.308;19.096;2023-04-25T07:08:45;13.10;99.90
43185;DHT22;28803;52.308;19.096;2023-04-25T07:11:13;12.80;99.90
43185;DHT22;28803;52.308;19.096;2023-04-25T07:13:40;12.40;99.90
43185;DHT22;28803;52.308;19.096;2023-04-25T07:16:07;12.50;99.90
43185;DHT22;28803;52.308;19.096;2023-04-25T07:18:34;13.40;99.90
43185;DHT22;28803;52.308;19.096;2023-04-25T07:21:02;14.40;99.90
43185;DHT22;28803;52.308;19.096;2023-04-25T07:23:29;15.10;97.80
43185;DHT22;28803;52.308;19.096;2023-04-25T07:25:56;15.10;96.30
43185;DHT22;28803;52.308;19.096;2023-04-25T07:28:24;15.70;94.70
43185;DHT22;28803;52.308;19.096;2023-04-25T07:30:51;15.80;93.40
43185;DHT22;28803;52.308;19.096;2023-04-25T07:33:18;15.30;93.60
43185;DHT22;28803;52.308;19.096;2023-04-25T07:35:47;14.60;94.80
43185;DHT22;28803;52.308;19.096;2023-04-25T07:38:14;13.90;95.70
43185;DHT22;28803;52.308;19.096;2023-04-25T07:40:41;13.20;95.60
43185;DHT22;28803;52.308;19.096;2023-04-25T07:43:09;12.90;98.30
43185;DHT22;28803;52.308;19.096;2023-04-25T07:45:39;13.50;98.00
43185;DHT22;28803;52.308;19.096;2023-04-25T07:48:06;13.80;96.90
43185;DHT22;28803;52.308;19.096;2023-04-25T07:50:33;14.10;96.30
43185;DHT22;28803;52.308;19.096;2023-04-25T07:53:00;14.30;96.00
43185;DHT22;28803;52.308;19.096;2023-04-25T07:55:28;13.90;96.30
43185;DHT22;28803;52.308;19.096;2023-04-25T07:57:54;13.30;96.70
43185;DHT22;28803;52.308;19.096;2023-04-25T08:00:22;12.80;97.70
43185;DHT22;28803;52.308;19.096;2023-04-25T08:02:49;12.60;98.90
43185;DHT22;28803;52.308;19.096;2023-04-25T08:05:18;13.00;99.00
43185;DHT22;28803;52.308;19.096;2023-04-25T08:07:49;15.20;95.70
43185;DHT22;28803;52.308;19.096;2023-04-25T08:10:17;16.00;92.80
43185;DHT22;28803;52.308;19.096;2023-04-25T08:12:44;15.50;92.40
43185;DHT22;28803;52.308;19.096;2023-04-25T08:15:11;15.60;92.30
43185;DHT22;28803;52.308;19.096;2023-04-25T08:17:40;16.90;92.20
43185;DHT22;28803;52.308;19.096;2023-04-25T08:20:08;17.60;85.70
43185;DHT22;28803;52.308;19.096;2023-04-25T08:22:35;16.70;85.10
43185;DHT22;28803;52.308;19.096;2023-04-25T08:25:03;15.70;89.80
43185;DHT22;28803;52.308;19.096;2023-04-25T08:27:30;15.10;91.20
43185;DHT22;28803;52.308;19.096;2023-04-25T08:29:57;16.30;91.30
43185;DHT22;28803;52.308;19.096;2023-04-25T08:32:25;18.70;84.30
43185;DHT22;28803;52.308;19.096;2023-04-25T08:34:55;19.20;78.00
43185;DHT22;28803;52.308;19.096;2023-04-25T08:37:22;18.30;79.10
43185;DHT22;28803;52.308;19.096;2023-04-25T08:39:49;17.40;81.40
43185;DHT22;28803;52.308;19.096;2023-04-25T08:42:19;16.20;83.90
43185;DHT22;28803;52.308;19.096;2023-04-25T08:44:49;15.20;89.00
43185;DHT22;28803;52.308;19.096;2023-04-25T08:47:19;16.30;86.70
43185;DHT22;28803;52.308;19.096;2023-04-25T08:49:49;19.30;77.30
43185;DHT22;28803;52.308;19.096;2023-04-25T08:52:22;19.90;73.20
43185;DHT22;28803;52.308;19.096;2023-04-25T08:54:51;18.60;73.90
43185;DHT22;28803;52.308;19.096;2023-04-25T08:57:19;18.20;76.80
43185;DHT22;28803;52.308;19.096;2023-04-25T08:59:49;18.10;77.20
43185;DHT22;28803;52.308;19.096;2023-04-25T09:02:16;18.80;75.90
43185;DHT22;28803;52.308;19.096;2023-04-25T09:04:46;18.30;74.40
43185;DHT22;28803;52.308;19.096;2023-04-25T09:07:13;17.00;76.70
43185;DHT22;28803;52.308;19.096;2023-04-25T09:09:47;16.00;80.50
43185;DHT22;28803;52.308;19.096;2023-04-25T09:12:14;16.00;82.70
43185;DHT22;28803;52.308;19.096;2023-04-25T09:14:41;16.80;80.60
43185;DHT22;28803;52.308;19.096;2023-04-25T09:17:09;16.80;79.30
43185;DHT22;28803;52.308;19.096;2023-04-25T09:19:37;16.80;80.20
43185;DHT22;28803;52.308;19.096;2023-04-25T09:22:08;15.70;82.80
43185;DHT22;28803;52.308;19.096;2023-04-25T09:24:39;15.70;83.60
43185;DHT22;28803;52.308;19.096;2023-04-25T09:27:13;15.00;86.20
43185;DHT22;28803;52.308;19.096;2023-04-25T09:29:44;15.00;87.10
43185;DHT22;28803;52.308;19.096;2023-04-25T09:32:22;15.00;87.60
43185;DHT22;28803;52.308;19.096;2023-04-25T09:34:55;15.00;86.20
43185;DHT22;28803;52.308;19.096;2023-04-25T09:37:28;15.20;86.70
43185;DHT22;28803;52.308;19.096;2023-04-25T09:39:58;14.90;83.80
43185;DHT22;28803;52.308;19.096;2023-04-25T09:42:32;14.40;85.50
43185;DHT22;28803;52.308;19.096;2023-04-25T09:45:02;14.00;87.50
43185;DHT22;28803;52.308;19.096;2023-04-25T09:47:31;13.60;87.50
43185;DHT22;28803;52.308;19.096;2023-04-25T09:49:59;13.60;88.50
43185;DHT22;28803;52.308;19.096;2023-04-25T09:52:26;13.60;90.00
43185;DHT22;28803;52.308;19.096;2023-04-25T09:54:53;13.40;89.30
43185;DHT22;28803;52.308;19.096;2023-04-25T09:57:25;13.20;89.90
43185;DHT22;28803;52.308;19.096;2023-04-25T09:59:54;13.20;91.20
43185;DHT22;28803;52.308;19.096;2023-04-25T10:02:24;13.00;90.80
43185;DHT22;28803;52.308;19.096;2023-04-25T10:04:54;12.90;91.90
43185;DHT22;28803;52.308;19.096;2023-04-25T10:07:25;13.00;91.80
43185;DHT22;28803;52.308;19.096;2023-04-25T10:10:03;13.00;91.50
43185;DHT22;28803;52.308;19.096;2023-04-25T10:12:32;13.10;91.70
43185;DHT22;28803;52.308;19.096;2023-04-25T10:15:00;13.20;91.70
43185;DHT22;28803;52.308;19.096;2023-04-25T10:17:28;13.40;92.60
43185;DHT22;28803;52.308;19.096;2023-04-25T10:19:56;13.60;91.80
43185;DHT22;28803;52.308;19.096;2023-04-25T10:22:31;13.50;88.40
43185;DHT22;28803;52.308;19.096;2023-04-25T10:25:00;13.30;89.00
43185;DHT22;28803;52.308;19.096;2023-04-25T10:27:31;13.00;90.70
43185;DHT22;28803;52.308;19.096;2023-04-25T10:30:09;12.80;91.50
43185;DHT22;28803;52.308;19.096;2023-04-25T10:32:39;12.60;91.90
43185;DHT22;28803;52.308;19.096;2023-04-25T10:35:14;12.50;92.50
43185;DHT22;28803;52.308;19.096;2023-04-25T10:40:34;12.30;92.80
43185;DHT22;28803;52.308;19.096;2023-04-25T10:43:34;12.20;92.80
43185;DHT22;28803;52.308;19.096;2023-04-25T10:46:15;12.10;93.30
43185;DHT22;28803;52.308;19.096;2023-04-25T10:51:33;12.40;93.50
43185;DHT22;28803;52.308;19.096;2023-04-25T10:54:22;12.50;93.60
43185;DHT22;28803;52.308;19.096;2023-04-25T10:56:52;12.50;92.40
43185;DHT22;28803;52.308;19.096;2023-04-25T10:59:20;12.50;92.60
43185;DHT22;28803;52.308;19.096;2023-04-25T11:01:52;12.60;92.30
43185;DHT22;28803;52.308;19.096;2023-04-25T11:04:34;12.60;92.50
43185;DHT22;28803;52.308;19.096;2023-04-25T11:09:35;12.90;92.70
43185;DHT22;28803;52.308;19.096;2023-04-25T11:12:03;13.20;92.50
43185;DHT22;28803;52.308;19.096;2023-04-25T11:14:30;13.20;92.70
43185;DHT22;28803;52.308;19.096;2023-04-25T11:16:58;13.40;91.40
43185;DHT22;28803;52.308;19.096;2023-04-25T11:19:27;13.40;91.70
43185;DHT22;28803;52.308;19.096;2023-04-25T11:21:59;13.60;92.30
43185;DHT22;28803;52.308;19.096;2023-04-25T11:24:31;13.60;92.50
43185;DHT22;28803;52.308;19.096;2023-04-25T11:26:59;13.30;89.70
43185;DHT22;28803;52.308;19.096;2023-04-25T11:29:30;13.30;90.10
43185;DHT22;28803;52.308;19.096;2023-04-25T11:31:58;12.80;90.70
43185;DHT22;28803;52.308;19.096;2023-04-25T11:34:27;12.80;91.00
43185;DHT22;28803;52.308;19.096;2023-04-25T11:36:58;12.50;91.70
43185;DHT22;28803;52.308;19.096;2023-04-25T11:39:27;12.50;91.90
43185;DHT22;28803;52.308;19.096;2023-04-25T11:41:55;12.50;92.50
43185;DHT22;28803;52.308;19.096;2023-04-25T11:44:22;12.50;92.70
43185;DHT22;28803;52.308;19.096;2023-04-25T11:46:50;12.50;91.90
43185;DHT22;28803;52.308;19.096;2023-04-25T11:49:17;12.50;92.40
43185;DHT22;28803;52.308;19.096;2023-04-25T11:51:47;12.60;92.10
43185;DHT22;28803;52.308;19.096;2023-04-25T11:54:14;12.60;91.50
43185;DHT22;28803;52.308;19.096;2023-04-25T11:56:43;12.70;92.50
43185;DHT22;28803;52.308;19.096;2023-04-25T11:59:11;13.00;92.80
43185;DHT22;28803;52.308;19.096;2023-04-25T12:01:46;13.20;92.40
43185;DHT22;28803;52.308;19.096;2023-04-25T12:04:22;13.50;91.70
43185;DHT22;28803;52.308;19.096;2023-04-25T12:06:54;13.70;90.20
43185;DHT22;28803;52.308;19.096;2023-04-25T12:09:33;13.70;90.30
43185;DHT22;28803;52.308;19.096;2023-04-25T12:12:01;13.00;89.70
43185;DHT22;28803;52.308;19.096;2023-04-25T12:14:35;13.10;90.10
43185;DHT22;28803;52.308;19.096;2023-04-25T12:17:03;12.80;91.10
43185;DHT22;28803;52.308;19.096;2023-04-25T12:19:33;12.70;91.20
43185;DHT22;28803;52.308;19.096;2023-04-25T12:22:02;12.70;90.60
43185;DHT22;28803;52.308;19.096;2023-04-25T12:24:33;12.70;90.80
43185;DHT22;28803;52.308;19.096;2023-04-25T12:27:06;12.90;91.70
43185;DHT22;28803;52.308;19.096;2023-04-25T12:29:35;12.90;91.80
43185;DHT22;28803;52.308;19.096;2023-04-25T12:32:05;12.80;90.90
43185;DHT22;28803;52.308;19.096;2023-04-25T12:34:32;12.80;91.10
43185;DHT22;28803;52.308;19.096;2023-04-25T12:37:02;13.00;91.40
43185;DHT22;28803;52.308;19.096;2023-04-25T12:39:30;13.00;91.60
43185;DHT22;28803;52.308;19.096;2023-04-25T12:41:57;13.60;90.70
43185;DHT22;28803;52.308;19.096;2023-04-25T12:44:25;13.60;90.90
43185;DHT22;28803;52.308;19.096;2023-04-25T12:46:53;14.20;89.70
43185;DHT22;28803;52.308;19.096;2023-04-25T12:49:21;14.20;90.10
43185;DHT22;28803;52.308;19.096;2023-04-25T12:51:49;14.40;88.10
43185;DHT22;28803;52.308;19.096;2023-04-25T12:54:18;14.30;85.90
43185;DHT22;28803;52.308;19.096;2023-04-25T12:56:46;14.10;86.50
43185;DHT22;28803;52.308;19.096;2023-04-25T12:59:13;14.10;86.40
43185;DHT22;28803;52.308;19.096;2023-04-25T13:01:40;14.00;85.70
43185;DHT22;28803;52.308;19.096;2023-04-25T13:04:07;14.00;87.00
43185;DHT22;28803;52.308;19.096;2023-04-25T13:06:34;14.00;87.90
43185;DHT22;28803;52.308;19.096;2023-04-25T13:09:02;13.90;88.60
43185;DHT22;28803;52.308;19.096;2023-04-25T13:11:30;13.70;88.40
43185;DHT22;28803;52.308;19.096;2023-04-25T13:13:58;13.20;88.80
43185;DHT22;28803;52.308;19.096;2023-04-25T13:16:25;12.80;90.40
43185;DHT22;28803;52.308;19.096;2023-04-25T13:18:52;12.60;91.00
43185;DHT22;28803;52.308;19.096;2023-04-25T13:21:19;12.60;91.20
43185;DHT22;28803;52.308;19.096;2023-04-25T13:23:48;12.50;91.10
43185;DHT22;28803;52.308;19.096;2023-04-25T13:26:16;12.40;90.70
43185;DHT22;28803;52.308;19.096;2023-04-25T13:28:43;12.40;90.50
43185;DHT22;28803;52.308;19.096;2023-04-25T13:31:11;12.40;91.10
43185;DHT22;28803;52.308;19.096;2023-04-25T13:33:38;12.50;91.60
43185;DHT22;28803;52.308;19.096;2023-04-25T13:36:05;12.50;91.30
43185;DHT22;28803;52.308;19.096;2023-04-25T13:38:32;12.60;91.30
43185;DHT22;28803;52.308;19.096;2023-04-25T13:41:00;12.60;91.50
43185;DHT22;28803;52.308;19.096;2023-04-25T13:43:27;12.70;91.00
43185;DHT22;28803;52.308;19.096;2023-04-25T13:45:55;12.80;91.40
43185;DHT22;28803;52.308;19.096;2023-04-25T13:48:23;12.80;91.20
43185;DHT22;28803;52.308;19.096;2023-04-25T13:50:51;12.80;90.70
43185;DHT22;28803;52.308;19.096;2023-04-25T13:53:18;12.80;90.30
43185;DHT22;28803;52.308;19.096;2023-04-25T13:55:45;12.80;90.10
43185;DHT22;28803;52.308;19.096;2023-04-25T13:58:13;12.80;90.20
43185;DHT22;28803;52.308;19.096;2023-04-25T14:00:40;12.80;90.30
43185;DHT22;28803;52.308;19.096;2023-04-25T14:03:10;12.90;91.30
43185;DHT22;28803;52.308;19.096;2023-04-25T14:05:38;13.00;91.20
43185;DHT22;28803;52.308;19.096;2023-04-25T14:08:07;13.10;90.10
43185;DHT22;28803;52.308;19.096;2023-04-25T14:10:35;13.00;89.20
43185;DHT22;28803;52.308;19.096;2023-04-25T14:13:04;13.00;87.60
43185;DHT22;28803;52.308;19.096;2023-04-25T14:15:32;12.90;88.30
43185;DHT22;28803;52.308;19.096;2023-04-25T14:18:00;12.90;87.70
43185;DHT22;28803;52.308;19.096;2023-04-25T14:20:28;12.80;87.10
43185;DHT22;28803;52.308;19.096;2023-04-25T14:22:55;12.80;88.10
43185;DHT22;28803;52.308;19.096;2023-04-25T14:25:24;12.80;90.20
43185;DHT22;28803;52.308;19.096;2023-04-25T14:27:52;12.80;88.50
43185;DHT22;28803;52.308;19.096;2023-04-25T14:30:20;12.70;88.30
43185;DHT22;28803;52.308;19.096;2023-04-25T14:32:49;12.60;88.80
43185;DHT22;28803;52.308;19.096;2023-04-25T14:35:17;12.60;89.70
43185;DHT22;28803;52.308;19.096;2023-04-25T14:37:44;12.60;90.40
43185;DHT22;28803;52.308;19.096;2023-04-25T14:40:13;12.70;90.40
43185;DHT22;28803;52.308;19.096;2023-04-25T14:42:42;12.60;90.40
43185;DHT22;28803;52.308;19.096;2023-04-25T14:45:10;12.60;90.70
43185;DHT22;28803;52.308;19.096;2023-04-25T14:47:37;12.50;91.40
43185;DHT22;28803;52.308;19.096;2023-04-25T14:50:06;12.40;91.40
43185;DHT22;28803;52.308;19.096;2023-04-25T14:52:35;12.30;91.50
43185;DHT22;28803;52.308;19.096;2023-04-25T14:55:02;12.30;90.70
43185;DHT22;28803;52.308;19.096;2023-04-25T14:57:34;12.10;90.60
43185;DHT22;28803;52.308;19.096;2023-04-25T15:00:03;12.10;91.10
43185;DHT22;28803;52.308;19.096;2023-04-25T15:02:33;12.10;90.70
43185;DHT22;28803;52.308;19.096;2023-04-25T15:05:02;12.00;90.40
43185;DHT22;28803;52.308;19.096;2023-04-25T15:07:31;12.00;90.60
43185;DHT22;28803;52.308;19.096;2023-04-25T15:09:58;12.10;90.60
43185;DHT22;28803;52.308;19.096;2023-04-25T15:12:26;12.20;90.10
43185;DHT22;28803;52.308;19.096;2023-04-25T15:14:55;12.20;90.30
43185;DHT22;28803;52.308;19.096;2023-04-25T15:17:23;12.10;87.40
43185;DHT22;28803;52.308;19.096;2023-04-25T15:19:50;12.20;88.20
43185;DHT22;28803;52.308;19.096;2023-04-25T15:22:18;12.00;89.10
43185;DHT22;28803;52.308;19.096;2023-04-25T15:24:45;12.00;89.80
43185;DHT22;28803;52.308;19.096;2023-04-25T15:27:13;12.00;90.40
43185;DHT22;28803;52.308;19.096;2023-04-25T15:29:40;12.00;90.60
43185;DHT22;28803;52.308;19.096;2023-04-25T15:32:08;12.10;90.90
43185;DHT22;28803;52.308;19.096;2023-04-25T15:34:35;12.10;90.70
43185;DHT22;28803;52.308;19.096;2023-04-25T15:37:02;12.00;90.30
43185;DHT22;28803;52.308;19.096;2023-04-25T15:39:30;12.00;91.00
43185;DHT22;28803;52.308;19.096;2023-04-25T15:41:57;11.90;91.60